createdAt,value
2023-01-04T00:00:10.389Z,0.80
2023-01-04T00:05:14.172Z,0.88
2023-01-04T00:10:19.519Z,0.88
2023-01-04T00:15:23.343Z,0.98
2023-01-04T00:20:27.071Z,0.90
2023-01-04T00:25:32.172Z,0.60
2023-01-04T00:30:35.993Z,1.23
2023-01-04T00:35:46.747Z,0.85
2023-01-04T00:40:51.944Z,0.80
2023-01-04T00:45:55.799Z,0.80
2023-01-04T00:51:00.037Z,0.95
2023-01-04T00:56:05.685Z,0.80
2023-01-04T01:01:10.199Z,0.57
2023-01-04T01:06:14.043Z,0.70
2023-01-04T01:11:19.666Z,0.68
2023-01-04T01:16:51.655Z,0.70
2023-01-04T01:21:48.711Z,0.70
2023-01-04T01:26:56.412Z,0.88
2023-01-04T01:32:00.255Z,0.90
2023-01-04T01:37:04.198Z,1.00
2023-01-04T01:42:19.642Z,1.13
2023-01-04T01:47:26.448Z,1.02
2023-01-04T01:52:34.500Z,0.90
2023-01-04T01:57:39.893Z,0.88
2023-01-04T02:02:51.014Z,1.15
2023-01-04T02:07:55.332Z,0.90
2023-01-04T02:13:03.673Z,0.85
2023-01-04T02:18:12.388Z,1.80
2023-01-04T02:24:04.245Z,1.33
2023-01-04T02:29:51.220Z,2.55
2023-01-04T02:35:05.333Z,1.48
2023-01-04T02:40:18.326Z,1.40
2023-01-04T02:45:28.045Z,1.05
2023-01-04T02:50:37.114Z,1.60
2023-01-04T02:55:49.288Z,1.52
2023-01-04T03:01:18.017Z,2.35
2023-01-04T03:06:28.048Z,2.00
2023-01-04T03:11:56.968Z,2.42
2023-01-04T03:17:02.591Z,1.98
2023-01-04T03:22:30.267Z,2.20
2023-01-04T03:27:51.607Z,2.53
2023-01-04T03:33:25.416Z,2.80
2023-01-04T03:38:55.427Z,3.40
2023-01-04T03:44:24.802Z,2.28
2023-01-04T03:49:34.801Z,2.13
2023-01-04T03:54:42.942Z,1.98
2023-01-04T03:59:53.314Z,1.90
2023-01-04T04:05:14.704Z,1.58
2023-01-04T04:10:19.769Z,1.42
2023-01-04T04:15:23.495Z,1.90
2023-01-04T04:20:27.192Z,2.28
2023-01-04T04:25:32.231Z,2.08
2023-01-04T04:30:35.885Z,1.55
2023-01-04T04:35:40.538Z,1.52
2023-01-04T04:41:03.052Z,1.83
2023-01-04T04:46:07.897Z,1.65
2023-01-04T04:51:11.767Z,1.63
2023-01-04T04:56:17.514Z,1.50
2023-01-04T05:01:21.396Z,1.45
2023-01-04T05:06:25.585Z,1.80
2023-01-04T05:11:48.160Z,1.70
2023-01-04T05:16:52.062Z,1.60
2023-01-04T05:21:55.895Z,1.30
2023-01-04T05:27:00.969Z,1.40
2023-01-04T05:32:04.772Z,1.23
2023-01-04T05:37:08.518Z,1.38
2023-01-04T05:42:28.972Z,1.70
2023-01-04T05:47:32.681Z,1.20
2023-01-04T05:52:37.287Z,1.63
2023-01-04T05:57:42.519Z,1.35
2023-01-04T06:02:46.475Z,1.27
2023-01-04T06:07:51.085Z,1.30
2023-01-04T06:12:56.402Z,0.98
2023-01-04T06:18:00.110Z,1.30
2023-01-04T06:23:03.837Z,1.00
2023-01-04T06:28:08.972Z,1.10
2023-01-04T06:33:12.699Z,1.17
2023-01-04T06:38:16.393Z,0.90
2023-01-04T06:43:21.667Z,0.75
2023-01-04T06:48:25.326Z,0.75
2023-01-04T06:53:29.172Z,0.90
2023-01-04T06:58:34.262Z,0.70
2023-01-04T07:03:38.095Z,1.00
2023-01-04T07:08:41.813Z,1.00
2023-01-04T07:13:47.000Z,1.00
2023-01-04T07:18:50.709Z,0.82
2023-01-04T07:23:54.424Z,0.98
2023-01-04T07:29:17.916Z,1.02
2023-01-04T07:34:24.299Z,0.90
2023-01-04T07:39:28.097Z,0.80
2023-01-04T07:44:33.173Z,0.70
2023-01-04T07:49:36.903Z,0.40
2023-01-04T07:54:40.609Z,0.70
2023-01-04T07:59:45.738Z,0.60
2023-01-04T08:04:49.511Z,1.10
2023-01-04T08:09:53.238Z,0.77
2023-01-04T08:14:58.340Z,0.68
2023-01-04T08:20:02.612Z,0.80
2023-01-04T08:25:07.164Z,0.80
2023-01-04T08:30:12.768Z,0.90
2023-01-04T08:35:16.684Z,0.90
2023-01-04T08:40:20.618Z,0.70
2023-01-04T08:45:25.750Z,0.50
2023-01-04T08:50:30.303Z,0.80
2023-01-04T08:55:34.465Z,0.88
2023-01-04T09:00:39.871Z,0.80
2023-01-04T09:05:44.857Z,0.90
2023-01-04T09:10:48.655Z,0.77
2023-01-04T09:15:53.863Z,1.08
2023-01-04T09:20:58.024Z,1.27
2023-01-04T09:26:09.519Z,1.10
2023-01-04T09:31:17.066Z,0.80
2023-01-04T09:41:27.925Z,0.85
2023-01-04T09:46:40.392Z,1.08
2023-01-04T09:51:50.816Z,0.90
2023-01-04T09:56:58.347Z,1.10
2023-01-04T10:02:12.278Z,1.15
2023-01-04T10:07:22.613Z,1.30
2023-01-04T10:12:40.603Z,1.30
2023-01-04T10:23:39.169Z,1.67
2023-01-04T10:28:58.675Z,1.40
2023-01-04T10:34:18.744Z,1.30
2023-01-04T10:39:32.073Z,1.15
2023-01-04T10:44:44.280Z,1.10
2023-01-04T10:49:53.739Z,1.55
2023-01-04T10:55:02.087Z,1.15
2023-01-04T11:00:12.584Z,1.38
2023-01-04T11:05:25.003Z,1.20
2023-01-04T11:10:32.703Z,0.95
2023-01-04T11:15:37.488Z,0.70
2023-01-04T11:20:43.182Z,0.80
2023-01-04T11:25:55.775Z,1.10
2023-01-04T11:31:05.497Z,0.93
2023-01-04T11:36:10.897Z,0.95
2023-01-04T11:41:19.181Z,0.90
2023-01-04T11:46:25.216Z,0.68
2023-01-04T11:51:40.996Z,0.77
2023-01-04T11:57:00.786Z,1.10
2023-01-04T12:07:49.949Z,0.80
2023-01-04T12:12:54.552Z,0.77
2023-01-04T12:18:06.495Z,1.33
2023-01-04T12:23:13.356Z,1.20
2023-01-04T12:28:35.072Z,1.30
2023-01-04T12:33:40.606Z,2.00
2023-01-04T12:39:30.054Z,2.10
2023-01-04T12:45:16.887Z,2.22
2023-01-04T12:50:23.307Z,2.50
2023-01-04T12:55:52.381Z,2.17
2023-01-04T13:01:28.488Z,2.03
2023-01-04T13:06:37.021Z,2.53
2023-01-04T13:12:06.153Z,2.58
2023-01-04T13:17:19.172Z,2.50
2023-01-04T13:22:29.405Z,3.40
2023-01-04T13:27:34.187Z,2.72
2023-01-04T13:33:15.088Z,2.95
2023-01-04T13:38:03.450Z,2.65
2023-01-04T13:43:20.523Z,3.13
2023-01-04T13:53:32.042Z,3.08
2023-01-04T13:58:36.642Z,2.33
2023-01-04T14:03:46.212Z,2.75
2023-01-04T14:08:56.872Z,2.50
2023-01-04T14:14:00.811Z,2.53
2023-01-04T14:19:39.794Z,3.47
2023-01-04T14:25:10.989Z,3.85
2023-01-04T14:30:24.178Z,3.10
2023-01-04T14:35:31.833Z,3.35
2023-01-04T14:40:36.740Z,3.47
2023-01-04T14:45:40.717Z,2.15
2023-01-04T14:50:45.975Z,2.33
2023-01-04T14:55:49.728Z,2.17
2023-01-04T15:00:53.649Z,1.55
2023-01-04T15:05:58.941Z,1.63
2023-01-04T15:11:03.243Z,2.30
2023-01-04T15:16:08.057Z,2.17
2023-01-04T15:21:13.960Z,1.98
2023-01-04T15:26:17.723Z,1.75
2023-01-04T15:31:29.050Z,1.65
2023-01-04T15:36:38.773Z,2.50
2023-01-04T15:42:00.599Z,1.50
2023-01-04T15:47:04.548Z,2.10
2023-01-04T15:52:09.728Z,1.35
2023-01-04T15:57:14.311Z,1.42
2023-01-04T16:02:18.136Z,1.30
2023-01-04T16:07:23.357Z,1.10
2023-01-04T16:12:48.708Z,1.88
2023-01-04T16:17:56.697Z,2.38
2023-01-04T16:23:01.819Z,2.75
2023-01-04T16:28:06.583Z,3.25
2023-01-04T16:33:54.873Z,2.63
2023-01-04T16:39:00.214Z,2.20
2023-01-04T16:44:06.664Z,1.88
2023-01-04T16:49:13.503Z,1.93
2023-01-04T16:54:19.975Z,2.58
2023-01-04T16:59:23.781Z,1.70
2023-01-04T17:04:27.600Z,2.78
2023-01-04T17:09:32.944Z,2.55
2023-01-04T17:14:36.710Z,2.00
2023-01-04T17:19:40.519Z,2.45
2023-01-04T17:24:45.834Z,2.40
2023-01-04T17:29:49.765Z,2.70
2023-01-04T17:34:53.566Z,2.22
2023-01-04T17:39:58.931Z,2.08
2023-01-04T17:45:02.829Z,2.63
2023-01-04T17:50:09.737Z,3.40
2023-01-04T17:55:15.148Z,3.40
2023-01-04T18:00:19.467Z,4.28
2023-01-04T18:05:23.257Z,3.63
2023-01-04T18:10:41.388Z,3.55
2023-01-04T18:16:18.155Z,3.65
2023-01-04T18:21:28.484Z,3.08
2023-01-04T18:31:59.082Z,4.10
2023-01-04T18:37:03.032Z,4.32
2023-01-04T18:42:08.373Z,3.30
2023-01-04T18:47:13.433Z,2.90
2023-01-04T18:52:17.557Z,3.95
2023-01-04T18:57:22.993Z,2.92
2023-01-04T19:02:27.993Z,3.65
2023-01-04T19:07:32.047Z,3.67
2023-01-04T19:12:38.896Z,3.90
2023-01-04T19:17:42.863Z,3.95
2023-01-04T19:22:46.585Z,2.80
2023-01-04T19:27:51.753Z,3.38
2023-01-04T19:32:55.671Z,3.95
2023-01-04T19:38:00.109Z,2.75
2023-01-04T19:43:05.350Z,3.70
2023-01-04T19:48:09.114Z,3.83
2023-01-04T19:53:13.983Z,2.47
2023-01-04T19:58:19.132Z,3.33
2023-01-04T20:03:23.675Z,2.70
2023-01-04T20:08:27.458Z,3.72
2023-01-04T20:13:34.234Z,3.30
2023-01-04T20:18:38.789Z,3.10
2023-01-04T20:23:43.717Z,3.17
2023-01-04T20:28:48.945Z,2.70
2023-01-04T20:33:52.796Z,3.35
2023-01-04T20:38:58.211Z,2.50
2023-01-04T20:44:03.869Z,2.35
2023-01-04T20:49:07.566Z,2.28
2023-01-04T20:54:11.535Z,3.17
2023-01-04T20:59:16.773Z,2.50
2023-01-04T21:04:20.428Z,3.05
2023-01-04T21:09:24.160Z,2.45
2023-01-04T21:14:31.440Z,2.75
2023-01-04T21:19:35.737Z,2.95
2023-01-04T21:24:39.731Z,2.67
2023-01-04T21:29:58.259Z,2.28
2023-01-04T21:35:22.510Z,3.15
2023-01-04T21:40:26.255Z,2.78
2023-01-04T21:45:31.512Z,3.40
2023-01-04T21:50:35.878Z,2.72
2023-01-04T21:55:39.638Z,2.72
2023-01-04T22:00:44.702Z,2.65
2023-01-04T22:05:48.968Z,2.67
2023-01-04T22:10:56.091Z,2.75
2023-01-04T22:21:07.148Z,3.33
2023-01-04T22:26:11.274Z,2.80
2023-01-04T22:31:16.690Z,2.33
2023-01-04T22:36:23.429Z,3.50
2023-01-04T22:41:29.098Z,2.72
2023-01-04T22:46:35.789Z,3.13
2023-01-04T22:51:41.445Z,3.25
2023-01-04T22:56:45.200Z,2.75
2023-01-04T23:01:50.358Z,3.53
2023-01-04T23:06:54.638Z,2.10
2023-01-04T23:11:58.412Z,1.85
2023-01-04T23:17:03.704Z,3.90
2023-01-04T23:22:07.595Z,2.83
2023-01-04T23:27:11.363Z,2.95
2023-01-04T23:32:16.559Z,2.35
2023-01-04T23:37:20.658Z,2.47
2023-01-04T23:42:24.579Z,2.38
2023-01-04T23:47:29.711Z,3.33
2023-01-04T23:52:33.377Z,2.90
2023-01-04T23:57:37.207Z,2.85
